Terminal Aerodrome Forecast
Issued by NWS Denver/Boulder, CO

Home | Current Version | Previous Version | Text Only | Print | Product List | Glossary On
Versions: 1 2 3 4 5 6 7 8 9 10 11 12 13 14 15 16 17 18 19 20 21 22 23 24 25 26 27 28 29 30 31 32 33 34 35 36 37 38 39 40 41 42 43 44 45 46 47 48 49 50
000
FTUS45 KBOU 121032 AAB
TAFDEN
TAF AMD
KDEN 121032Z 1211/1312 31006KT P6SM FEW005 SCT020 BKN140
      TEMPO 1211/1213 BKN020
     FM121600 04010KT P6SM SCT070 BKN140
      TEMPO 1221/1301 VRB15G30KT 5SM TSRA BKN060CB
     FM130100 04008KT P6SM VCTS SCT060CB BKN120 PROB30 1301/1304
      -SHRA BKN060
     FM130900 24005KT P6SM SCT120=

USA.gov is the U.S. government's official web portal to all federal, state and local government web resources and services.